createdAt,value
2019-04-10T00:01:11.185Z,10.20
2019-04-10T00:03:43.787Z,10.33
2019-04-10T00:06:16.593Z,10.50
2019-04-10T00:08:44.806Z,11.87
2019-04-10T00:11:14.647Z,9.77
2019-04-10T00:13:44.910Z,10.70
2019-04-10T00:16:15.974Z,9.90
2019-04-10T00:18:46.373Z,12.10
2019-04-10T00:21:17.273Z,16.33
2019-04-10T00:23:47.298Z,11.50
2019-04-10T00:26:17.400Z,13.63
2019-04-10T00:28:47.729Z,11.33
2019-04-10T00:31:17.901Z,11.60
2019-04-10T00:33:47.814Z,11.43
2019-04-10T00:36:18.217Z,9.83
2019-04-10T00:38:48.315Z,15.77
2019-04-10T00:41:18.224Z,11.30
2019-04-10T00:43:48.904Z,10.37
2019-04-10T00:46:18.944Z,12.30
2019-04-10T00:48:48.987Z,11.97
2019-04-10T00:51:19.299Z,10.93
2019-04-10T00:53:49.753Z,13.80
2019-04-10T00:56:20.703Z,11.83
2019-04-10T00:58:51.240Z,12.30
2019-04-10T01:01:21.500Z,11.67
2019-04-10T01:03:51.300Z,12.23
2019-04-10T01:06:22.042Z,12.27
2019-04-10T01:08:52.986Z,11.53
2019-04-10T01:11:23.182Z,13.33
2019-04-10T01:13:53.736Z,11.97
2019-04-10T01:16:23.761Z,14.53
2019-04-10T01:18:53.544Z,12.10
2019-04-10T01:21:23.315Z,11.13
2019-04-10T01:23:53.274Z,14.60
2019-04-10T01:26:23.398Z,13.73
2019-04-10T01:28:54.078Z,12.80
2019-04-10T01:31:24.197Z,11.13
2019-04-10T01:33:54.791Z,12.40
2019-04-10T01:36:24.640Z,13.00
2019-04-10T01:38:54.390Z,12.57
2019-04-10T01:41:24.190Z,12.13
2019-04-10T01:43:53.927Z,13.37
2019-04-10T01:46:24.413Z,16.60
2019-04-10T01:48:55.435Z,13.50
2019-04-10T01:51:25.566Z,12.13
2019-04-10T01:53:55.286Z,15.60
2019-04-10T01:56:31.478Z,14.13
2019-04-10T01:58:57.173Z,12.70
2019-04-10T02:01:28.674Z,14.43
2019-04-10T02:03:58.527Z,14.17
2019-04-10T02:06:29.385Z,13.40
2019-04-10T02:09:00.344Z,14.30
2019-04-10T02:11:30.915Z,13.57
2019-04-10T02:14:00.773Z,16.63
2019-04-10T02:16:30.612Z,12.73
2019-04-10T02:19:00.414Z,14.83
2019-04-10T02:21:30.136Z,14.90
2019-04-10T02:24:00.895Z,16.17
2019-04-10T02:26:31.742Z,13.27
2019-04-10T02:29:01.753Z,15.00
2019-04-10T02:31:32.027Z,13.87
2019-04-10T02:34:01.843Z,13.10
2019-04-10T02:36:31.771Z,12.03
2019-04-10T02:39:15.093Z,13.63
2019-04-10T02:41:34.536Z,14.13
2019-04-10T02:44:04.937Z,15.10
2019-04-10T02:46:36.765Z,12.57
2019-04-10T02:49:08.028Z,13.23
2019-04-10T02:51:38.928Z,15.27
2019-04-10T02:54:09.342Z,15.43
2019-04-10T02:56:40.846Z,14.00
2019-04-10T02:59:11.257Z,13.03
2019-04-10T03:01:41.695Z,13.60
2019-04-10T03:04:13.280Z,12.27
2019-04-10T03:06:43.178Z,13.60
2019-04-10T03:09:30.496Z,14.53
2019-04-10T03:11:45.714Z,13.90
2019-04-10T03:14:16.813Z,13.77
2019-04-10T03:16:47.821Z,15.80
2019-04-10T03:19:17.775Z,13.77
2019-04-10T03:21:47.507Z,13.87
2019-04-10T03:24:17.147Z,15.87
2019-04-10T03:26:47.837Z,17.00
2019-04-10T03:29:17.833Z,15.30
2019-04-10T03:31:49.509Z,14.90
2019-04-10T03:34:31.870Z,13.40
2019-04-10T03:37:01.806Z,15.87
2019-04-10T03:39:34.646Z,17.27
2019-04-10T03:42:04.390Z,20.07
2019-04-10T03:44:34.692Z,16.50
2019-04-10T03:47:04.540Z,17.93
2019-04-10T03:49:34.228Z,16.40
2019-04-10T03:52:05.065Z,15.03
2019-04-10T03:54:34.823Z,14.80
2019-04-10T03:57:04.628Z,15.53
2019-04-10T03:59:34.274Z,15.60
2019-04-10T04:02:05.225Z,15.23
2019-04-10T04:04:35.197Z,16.13
2019-04-10T04:07:05.056Z,17.30
2019-04-10T04:09:35.609Z,20.13
2019-04-10T04:12:06.291Z,15.73
2019-04-10T04:14:36.692Z,14.80
2019-04-10T04:17:06.553Z,18.07
2019-04-10T04:19:36.346Z,17.23
2019-04-10T04:22:06.163Z,19.90
2019-04-10T04:24:36.002Z,15.23
2019-04-10T04:27:05.921Z,15.73
2019-04-10T04:29:35.750Z,16.43
2019-04-10T04:32:05.507Z,17.83
2019-04-10T04:34:35.242Z,18.07
2019-04-10T04:37:05.094Z,19.23
2019-04-10T04:39:35.051Z,19.57
2019-04-10T04:42:05.055Z,15.90
2019-04-10T04:44:35.458Z,18.83
2019-04-10T04:47:06.233Z,16.87
2019-04-10T04:49:36.053Z,19.90
2019-04-10T04:52:09.916Z,20.03
2019-04-10T04:54:39.391Z,16.87
2019-04-10T04:57:09.086Z,17.70
2019-04-10T04:59:38.851Z,15.17
2019-04-10T05:02:08.490Z,16.20
2019-04-10T05:04:38.107Z,16.23
2019-04-10T05:07:08.369Z,14.63
2019-04-10T05:09:39.361Z,17.20
2019-04-10T05:12:09.371Z,19.93
2019-04-10T05:14:39.873Z,14.37
2019-04-10T05:17:10.068Z,15.47
2019-04-10T05:19:40.557Z,17.30
2019-04-10T05:22:10.386Z,15.60
2019-04-10T05:24:40.447Z,15.00
2019-04-10T05:27:10.250Z,15.30
2019-04-10T05:29:40.877Z,14.40
2019-04-10T05:32:11.415Z,17.10
2019-04-10T05:34:41.201Z,15.57
2019-04-10T05:37:11.460Z,18.90
2019-04-10T05:39:47.559Z,18.80
2019-04-10T05:42:12.982Z,18.17
2019-04-10T05:44:42.698Z,17.27
2019-04-10T05:47:13.619Z,15.77
2019-04-10T05:49:44.930Z,17.30
2019-04-10T05:52:14.797Z,17.80
2019-04-10T05:54:44.814Z,16.17
2019-04-10T05:57:14.481Z,25.70
2019-04-10T05:59:44.124Z,16.23
2019-04-10T06:02:14.240Z,15.00
2019-04-10T06:04:43.861Z,14.63
2019-04-10T06:07:13.576Z,16.80
2019-04-10T06:09:54.067Z,17.67
2019-04-10T06:12:14.515Z,16.40
2019-04-10T06:14:44.241Z,14.80
2019-04-10T06:17:14.194Z,19.00
2019-04-10T06:19:44.770Z,18.47
2019-04-10T06:22:14.653Z,20.30
2019-04-10T06:24:44.632Z,16.33
2019-04-10T06:27:14.354Z,16.27
2019-04-10T06:29:44.990Z,18.17
2019-04-10T06:32:15.362Z,16.30
2019-04-10T06:34:45.984Z,16.30
2019-04-10T06:37:15.932Z,21.00
2019-04-10T06:39:46.397Z,17.37
2019-04-10T06:42:17.750Z,14.50
2019-04-10T06:44:47.456Z,9.90
2019-04-10T06:47:18.664Z,15.37
2019-04-10T06:49:48.422Z,13.80
2019-04-10T06:52:18.588Z,11.70
2019-04-10T06:54:49.039Z,13.23
2019-04-10T06:57:18.825Z,11.90
2019-04-10T06:59:48.526Z,11.57
2019-04-10T07:02:25.532Z,13.40
2019-04-10T07:04:54.440Z,14.93
2019-04-10T07:07:23.865Z,16.53
2019-04-10T07:09:55.305Z,18.80
2019-04-10T07:12:27.722Z,12.07
2019-04-10T07:14:58.328Z,11.97
2019-04-10T07:17:29.929Z,21.73
2019-04-10T07:19:59.764Z,13.43
2019-04-10T07:22:30.842Z,16.27
2019-04-10T07:25:00.952Z,15.47
2019-04-10T07:27:33.835Z,12.87
2019-04-10T07:30:02.122Z,16.03
2019-04-10T07:32:31.902Z,14.47
2019-04-10T07:35:02.943Z,20.03
2019-04-10T07:37:33.989Z,18.67
2019-04-10T07:40:06.401Z,11.90
2019-04-10T07:42:39.625Z,15.90
2019-04-10T07:45:08.250Z,11.67
2019-04-10T07:47:38.128Z,12.37
2019-04-10T07:50:08.885Z,14.43
2019-04-10T07:52:39.255Z,11.63
2019-04-10T07:55:09.167Z,12.80
2019-04-10T07:57:38.869Z,10.77
2019-04-10T08:00:11.128Z,13.23
2019-04-10T08:02:41.218Z,12.83
2019-04-10T08:05:12.274Z,13.87
2019-04-10T08:07:43.095Z,13.03
2019-04-10T08:10:13.439Z,11.30
2019-04-10T08:12:50.040Z,11.13
2019-04-10T08:15:15.026Z,12.37
2019-04-10T08:17:44.804Z,11.90
2019-04-10T08:20:15.534Z,12.43
2019-04-10T08:22:45.465Z,14.60
2019-04-10T08:25:16.294Z,13.37
2019-04-10T08:27:46.349Z,11.30
2019-04-10T08:30:17.434Z,10.90
2019-04-10T08:32:56.150Z,10.80
2019-04-10T08:35:18.709Z,13.53
2019-04-10T08:37:48.779Z,10.23
2019-04-10T08:40:19.189Z,18.90
2019-04-10T08:42:49.278Z,11.00
2019-04-10T08:45:19.125Z,13.23
2019-04-10T08:47:48.906Z,11.13
2019-04-10T08:50:19.679Z,11.97
2019-04-10T08:52:49.802Z,10.27
2019-04-10T08:55:19.495Z,11.23
2019-04-10T08:57:50.185Z,12.30
2019-04-10T09:00:20.674Z,17.50
2019-04-10T09:02:50.658Z,11.20
2019-04-10T09:05:21.580Z,11.50
2019-04-10T09:07:52.612Z,11.43
2019-04-10T09:10:22.708Z,23.73
2019-04-10T09:12:54.503Z,14.30
2019-04-10T09:15:24.264Z,25.23
2019-04-10T09:17:54.028Z,13.97
2019-04-10T09:20:24.711Z,13.80
2019-04-10T09:23:14.680Z,11.30
2019-04-10T09:25:26.899Z,11.10
2019-04-10T09:27:56.717Z,9.00
2019-04-10T09:30:26.938Z,12.17
2019-04-10T09:32:57.083Z,12.60
2019-04-10T09:35:26.750Z,10.03
2019-04-10T09:37:56.686Z,13.97
2019-04-10T09:40:26.606Z,9.70
2019-04-10T09:42:57.719Z,9.70
2019-04-10T09:45:28.516Z,10.67
2019-04-10T09:47:58.353Z,14.43
2019-04-10T09:50:28.232Z,14.83
2019-04-10T09:52:58.048Z,9.50
2019-04-10T09:55:27.841Z,11.50
2019-04-10T09:57:57.661Z,8.97
2019-04-10T10:00:27.837Z,9.77
2019-04-10T10:02:57.780Z,11.57
2019-04-10T10:05:28.525Z,12.70
2019-04-10T10:07:58.585Z,12.50
2019-04-10T10:10:29.059Z,12.67
2019-04-10T10:12:59.156Z,16.13
2019-04-10T10:15:29.335Z,9.83
2019-04-10T10:17:59.300Z,12.73
2019-04-10T10:20:48.400Z,10.77
2019-04-10T10:23:18.191Z,11.03
2019-04-10T10:25:48.078Z,16.10
2019-04-10T10:28:18.757Z,9.27
2019-04-10T10:30:49.415Z,12.07
2019-04-10T10:33:19.480Z,12.70
2019-04-10T10:35:49.614Z,9.80
2019-04-10T10:38:19.415Z,10.47
2019-04-10T10:40:49.127Z,12.10
2019-04-10T10:43:20.407Z,12.27
2019-04-10T10:45:51.184Z,8.63
2019-04-10T10:48:21.951Z,8.00
2019-04-10T10:50:51.715Z,9.87
2019-04-10T10:53:21.964Z,10.27
2019-04-10T10:55:51.800Z,12.10
2019-04-10T10:58:21.864Z,8.83
2019-04-10T11:01:11.607Z,7.53
2019-04-10T11:03:42.448Z,8.00
2019-04-10T11:06:12.945Z,8.67
2019-04-10T11:08:43.813Z,7.53
2019-04-10T11:11:14.449Z,8.83
2019-04-10T11:13:44.127Z,10.43
2019-04-10T11:16:14.440Z,11.23
2019-04-10T11:18:44.373Z,8.97
2019-04-10T11:21:14.151Z,7.63
2019-04-10T11:23:43.946Z,12.07
2019-04-10T11:26:18.915Z,8.17
2019-04-10T11:28:45.595Z,7.80
2019-04-10T11:31:15.899Z,9.37
2019-04-10T11:33:50.264Z,10.80
2019-04-10T11:36:17.599Z,11.53
2019-04-10T11:38:49.217Z,10.33
2019-04-10T11:41:19.681Z,9.40
2019-04-10T11:43:52.627Z,8.20
2019-04-10T11:46:22.785Z,8.77
2019-04-10T11:48:55.278Z,7.33
2019-04-10T11:51:29.795Z,9.27
2019-04-10T11:53:57.487Z,11.13
2019-04-10T11:56:29.981Z,6.17
2019-04-10T11:59:01.498Z,9.77
2019-04-10T12:01:31.157Z,7.10
2019-04-10T12:04:02.834Z,11.37
2019-04-10T12:06:33.900Z,10.73
2019-04-10T12:09:32.014Z,8.27
2019-04-10T12:11:37.601Z,13.80
2019-04-10T12:14:07.683Z,7.87
2019-04-10T12:16:37.414Z,9.40
2019-04-10T12:19:07.151Z,9.50
2019-04-10T12:21:37.912Z,9.73
2019-04-10T12:24:07.723Z,6.93
2019-04-10T12:26:38.092Z,9.40
2019-04-10T12:29:08.650Z,10.67
2019-04-10T12:31:39.702Z,6.30
2019-04-10T12:34:09.421Z,8.40
2019-04-10T12:36:39.260Z,9.27
2019-04-10T12:39:10.562Z,7.63
2019-04-10T12:41:40.306Z,10.97
2019-04-10T12:44:10.092Z,16.60
2019-04-10T12:46:39.833Z,9.53
2019-04-10T12:49:09.612Z,9.57
2019-04-10T12:51:39.353Z,8.93
2019-04-10T12:54:10.034Z,9.33
2019-04-10T12:56:40.201Z,9.87
2019-04-10T12:59:11.176Z,10.50
2019-04-10T13:01:41.034Z,6.93
2019-04-10T13:04:11.764Z,9.60
2019-04-10T13:06:42.262Z,11.33
2019-04-10T13:09:14.159Z,10.40
2019-04-10T13:11:44.840Z,7.43
2019-04-10T13:14:14.795Z,8.97
2019-04-10T13:16:44.662Z,7.80
2019-04-10T13:19:14.439Z,9.00
2019-04-10T13:21:44.392Z,10.80
2019-04-10T13:24:14.226Z,7.33
2019-04-10T13:26:44.121Z,10.60
2019-04-10T13:29:14.139Z,8.63
2019-04-10T13:31:44.587Z,13.03
2019-04-10T13:34:15.307Z,7.30
2019-04-10T13:36:46.039Z,8.60
2019-04-10T13:39:17.710Z,13.33
2019-04-10T13:41:48.392Z,10.53
2019-04-10T13:44:18.256Z,10.23
2019-04-10T13:46:49.064Z,10.30
2019-04-10T13:49:19.936Z,13.10
2019-04-10T13:51:50.172Z,7.17
2019-04-10T13:54:20.756Z,7.60
2019-04-10T13:56:50.487Z,8.23
2019-04-10T13:59:20.705Z,10.90
2019-04-10T14:01:50.661Z,8.30
2019-04-10T14:04:20.339Z,8.57
2019-04-10T14:06:50.114Z,8.70
2019-04-10T14:09:34.893Z,6.83
2019-04-10T14:11:51.775Z,9.10
2019-04-10T14:14:21.659Z,8.93
2019-04-10T14:16:51.399Z,10.37
2019-04-10T14:19:21.419Z,12.83
2019-04-10T14:21:51.448Z,10.53
2019-04-10T14:24:21.968Z,7.33
2019-04-10T14:26:56.650Z,7.70
2019-04-10T14:29:26.874Z,13.00
2019-04-10T14:32:05.010Z,11.50
2019-04-10T14:34:34.880Z,8.73
2019-04-10T14:37:07.270Z,9.20
2019-04-10T14:39:37.633Z,9.23
2019-04-10T14:42:08.570Z,10.40
2019-04-10T14:44:38.883Z,8.10
2019-04-10T14:47:10.526Z,9.90
2019-04-10T14:49:40.911Z,6.67
2019-04-10T14:52:10.939Z,7.80
2019-04-10T14:54:40.754Z,9.20
2019-04-10T14:57:10.597Z,8.47
2019-04-10T14:59:40.500Z,7.80
2019-04-10T15:02:10.771Z,10.03
2019-04-10T15:04:41.492Z,6.70
2019-04-10T15:07:12.279Z,6.70
2019-04-10T15:09:42.163Z,8.60
2019-04-10T15:12:12.267Z,7.60
2019-04-10T15:14:42.083Z,6.90
2019-04-10T15:17:12.600Z,10.63
2019-04-10T15:19:42.730Z,8.10
2019-04-10T15:22:13.665Z,10.93
2019-04-10T15:24:44.721Z,13.43
2019-04-10T15:27:15.302Z,12.63
2019-04-10T15:29:45.109Z,8.67
2019-04-10T15:32:14.820Z,8.93
2019-04-10T15:34:44.513Z,14.00
2019-04-10T15:37:33.592Z,8.50
2019-04-10T15:40:12.253Z,8.80
2019-04-10T15:42:34.967Z,11.10
2019-04-10T15:45:07.034Z,9.90
2019-04-10T15:47:37.451Z,9.70
2019-04-10T15:50:08.571Z,10.67
2019-04-10T15:52:39.603Z,12.30
2019-04-10T15:55:09.687Z,7.60
2019-04-10T15:57:47.733Z,7.67
2019-04-10T16:00:11.159Z,10.53
2019-04-10T16:02:40.945Z,9.50
2019-04-10T16:05:10.634Z,7.67
2019-04-10T16:07:40.747Z,11.40
2019-04-10T16:10:30.761Z,12.50
2019-04-10T16:13:02.083Z,8.20
2019-04-10T16:15:34.542Z,9.60
2019-04-10T16:18:07.212Z,11.57
2019-04-10T16:20:36.991Z,8.17
2019-04-10T16:23:18.482Z,8.43
2019-04-10T16:25:50.256Z,6.30
2019-04-10T16:28:20.733Z,7.85
2019-04-10T16:30:50.831Z,7.37
2019-04-10T16:33:20.735Z,9.97
2019-04-10T16:35:50.522Z,7.27
2019-04-10T16:38:20.540Z,10.17
2019-04-10T16:40:50.308Z,7.43
2019-04-10T16:43:20.225Z,15.60
2019-04-10T16:45:50.941Z,6.90
2019-04-10T16:48:21.028Z,6.87
2019-04-10T16:50:51.848Z,13.00
2019-04-10T16:53:22.207Z,10.10
2019-04-10T16:55:53.300Z,10.30
2019-04-10T16:58:23.476Z,9.00
2019-04-10T17:00:53.866Z,17.97
2019-04-10T17:03:23.677Z,9.10
2019-04-10T17:05:53.658Z,6.70
2019-04-10T17:08:23.728Z,9.30
2019-04-10T17:10:53.468Z,9.90
2019-04-10T17:13:23.154Z,10.33
2019-04-10T17:15:53.493Z,9.27
2019-04-10T17:18:24.523Z,8.30
2019-04-10T17:20:55.117Z,9.80
2019-04-10T17:23:37.618Z,11.40
2019-04-10T17:26:08.676Z,9.63
2019-04-10T17:28:38.647Z,12.90
2019-04-10T17:31:10.837Z,9.53
2019-04-10T17:33:41.861Z,7.73
2019-04-10T17:36:11.977Z,11.00
2019-04-10T17:38:42.782Z,9.53
2019-04-10T17:41:12.669Z,7.17
2019-04-10T17:43:43.454Z,7.90
2019-04-10T17:46:13.305Z,9.47
2019-04-10T17:48:44.051Z,7.83
2019-04-10T17:51:14.143Z,9.93
2019-04-10T17:53:45.277Z,10.37
2019-04-10T17:56:15.893Z,9.20
2019-04-10T17:58:45.995Z,8.90
2019-04-10T18:01:17.361Z,6.60
2019-04-10T18:03:53.173Z,5.83
2019-04-10T18:06:19.403Z,11.77
2019-04-10T18:08:49.355Z,14.45
2019-04-10T18:11:20.304Z,9.23
2019-04-10T18:13:51.071Z,10.07
2019-04-10T18:16:22.001Z,7.00
2019-04-10T18:18:51.861Z,8.70
2019-04-10T18:21:22.416Z,9.23
2019-04-10T18:23:52.174Z,7.47
2019-04-10T18:26:21.966Z,7.77
2019-04-10T18:28:52.008Z,7.77
2019-04-10T18:31:24.873Z,9.37
2019-04-10T18:33:53.233Z,8.83
2019-04-10T18:36:23.012Z,9.83
2019-04-10T18:38:54.123Z,9.30
2019-04-10T18:41:24.218Z,8.60
2019-04-10T18:43:54.402Z,9.07
2019-04-10T18:46:24.188Z,7.47
2019-04-10T18:48:54.896Z,9.73
2019-04-10T18:51:25.768Z,10.53
2019-04-10T18:53:56.048Z,10.30
2019-04-10T18:56:25.753Z,11.70
2019-04-10T18:59:05.926Z,7.93
2019-04-10T19:01:49.495Z,12.63
2019-04-10T19:04:27.375Z,11.40
2019-04-10T19:06:58.922Z,9.63
2019-04-10T19:09:32.916Z,10.73
2019-04-10T19:12:02.671Z,10.50
2019-04-10T19:14:36.181Z,10.03
2019-04-10T19:17:06.616Z,10.13
2019-04-10T19:19:40.340Z,20.77
2019-04-10T19:22:08.085Z,14.23
2019-04-10T19:24:39.198Z,11.23
2019-04-10T19:27:09.618Z,10.57
2019-04-10T19:29:42.502Z,20.90
2019-04-10T19:32:13.879Z,10.77
2019-04-10T19:34:43.636Z,14.50
2019-04-10T19:37:14.443Z,13.17
2019-04-10T19:39:44.625Z,10.73
2019-04-10T19:42:15.360Z,10.60
2019-04-10T19:44:45.583Z,9.87
2019-04-10T19:47:15.869Z,10.57
2019-04-10T19:49:46.645Z,11.53
2019-04-10T19:52:16.319Z,9.70
2019-04-10T19:54:47.006Z,9.90
2019-04-10T19:57:17.256Z,10.47
2019-04-10T19:59:48.064Z,9.80
2019-04-10T20:02:18.857Z,6.83
2019-04-10T20:04:48.805Z,18.00
2019-04-10T20:07:18.598Z,9.50
2019-04-10T20:09:48.558Z,7.70
2019-04-10T20:12:18.334Z,9.20
2019-04-10T20:14:48.513Z,8.73
2019-04-10T20:17:18.267Z,9.43
2019-04-10T20:19:48.896Z,11.30
2019-04-10T20:22:18.830Z,9.20
2019-04-10T20:24:50.159Z,8.20
2019-04-10T20:27:20.304Z,7.50
2019-04-10T20:29:51.061Z,12.90
2019-04-10T20:32:21.766Z,9.30
2019-04-10T20:34:51.762Z,8.03
2019-04-10T20:37:22.755Z,9.13
2019-04-10T20:39:53.689Z,10.23
2019-04-10T20:42:24.202Z,8.20
2019-04-10T20:44:55.058Z,5.50
2019-04-10T20:47:24.811Z,7.63
2019-04-10T20:49:55.350Z,6.07
2019-04-10T20:52:26.247Z,6.50
2019-04-10T20:54:57.186Z,6.93
2019-04-10T20:57:27.700Z,5.80
2019-04-10T20:59:57.415Z,7.30
2019-04-10T21:02:28.579Z,6.00
2019-04-10T21:05:05.736Z,5.83
2019-04-10T21:07:31.881Z,6.50
2019-04-10T21:10:01.757Z,6.50
2019-04-10T21:12:32.237Z,5.27
2019-04-10T21:15:02.019Z,5.83
2019-04-10T21:17:31.965Z,7.80
2019-04-10T21:20:02.325Z,6.87
2019-04-10T21:22:32.785Z,6.30
2019-04-10T21:25:02.883Z,8.30
2019-04-10T21:27:32.725Z,8.10
2019-04-10T21:30:16.006Z,7.97
2019-04-10T21:32:52.839Z,6.90
2019-04-10T21:35:23.287Z,6.83
2019-04-10T21:37:53.018Z,5.73
2019-04-10T21:40:22.857Z,7.23
2019-04-10T21:42:53.974Z,4.83
2019-04-10T21:45:24.365Z,9.10
2019-04-10T21:47:54.372Z,8.40
2019-04-10T21:50:24.741Z,5.40
2019-04-10T21:52:55.489Z,6.47
2019-04-10T21:55:26.855Z,7.97
2019-04-10T21:57:57.609Z,8.63
2019-04-10T22:00:45.195Z,6.40
2019-04-10T22:03:14.902Z,6.80
2019-04-10T22:05:46.551Z,6.67
2019-04-10T22:08:17.940Z,6.30
2019-04-10T22:11:00.782Z,11.87
2019-04-10T22:13:32.235Z,6.00
2019-04-10T22:16:02.044Z,9.53
2019-04-10T22:18:31.795Z,8.90
2019-04-10T22:21:01.492Z,7.60
2019-04-10T22:23:32.164Z,5.90
2019-04-10T22:26:02.197Z,8.37
2019-04-10T22:28:32.848Z,7.10
2019-04-10T22:31:02.642Z,9.60
2019-04-10T22:33:32.282Z,9.57
2019-04-10T22:36:02.351Z,6.10
2019-04-10T22:38:31.957Z,7.30
2019-04-10T22:41:02.488Z,7.90
2019-04-10T22:43:32.234Z,8.63
2019-04-10T22:46:02.642Z,6.90
2019-04-10T22:48:32.937Z,7.23
2019-04-10T22:51:03.476Z,7.73
2019-04-10T22:53:33.156Z,7.97
2019-04-10T22:56:02.920Z,7.90
2019-04-10T22:58:33.010Z,6.30
2019-04-10T23:01:04.748Z,6.53
2019-04-10T23:03:34.749Z,6.67
2019-04-10T23:06:04.916Z,6.00
2019-04-10T23:08:35.736Z,7.10
2019-04-10T23:11:06.240Z,10.57
2019-04-10T23:13:36.311Z,6.63
2019-04-10T23:16:08.681Z,6.37
2019-04-10T23:18:39.284Z,6.80
2019-04-10T23:21:09.221Z,10.63
2019-04-10T23:23:39.011Z,6.70
2019-04-10T23:26:09.013Z,5.40
2019-04-10T23:28:39.789Z,8.50
2019-04-10T23:31:09.735Z,5.67
2019-04-10T23:33:39.883Z,5.50
2019-04-10T23:36:09.780Z,6.13
2019-04-10T23:38:39.600Z,5.80
2019-04-10T23:41:09.610Z,8.70
2019-04-10T23:43:39.882Z,9.07
2019-04-10T23:46:11.217Z,7.10
2019-04-10T23:48:41.239Z,7.27
2019-04-10T23:51:11.030Z,7.80
2019-04-10T23:53:40.782Z,9.20
2019-04-10T23:56:11.380Z,6.50
2019-04-10T23:58:42.260Z,6.50
